Time;durP1;ratioP1;P1;durP2;ratioP2;P2;SDS_P1;SDS_P2;PMS_P1;PMS_P2;Temp;Humidity;BMP_temperature;BMP_pressure;BME280_temperature;BME280_humidity;BME280_pressure;Samples;Min_cycle;Max_cycle;Signal;HPM_P1;HPM_P2
2023/06/21 00:01:07;;;;;;;7.10;5.05;;;;;;;21.84;100.00;101079.72;5036106;28;20397;-64
2023/06/21 00:03:35;;;;;;;8.25;5.05;;;;;;;21.84;100.00;101066.69;5036041;28;20057;-63
2023/06/21 00:06:02;;;;;;;8.75;5.60;;;;;;;21.83;100.00;101078.13;5036548;28;20474;-62
2023/06/21 00:08:32;;;;;;;8.18;5.47;;;;;;;21.83;100.00;101089.22;5033091;28;20046;-62
2023/06/21 00:11:00;;;;;;;8.75;5.60;;;;;;;21.81;100.00;101088.72;5015281;28;20066;-62
2023/06/21 00:13:28;;;;;;;7.97;5.45;;;;;;;21.79;100.00;101093.81;5032509;28;20476;-62
2023/06/21 00:15:55;;;;;;;11.93;5.63;;;;;;;21.79;100.00;101093.81;5034988;28;20485;-64
2023/06/21 00:18:24;;;;;;;11.30;6.18;;;;;;;21.76;100.00;101089.75;5021955;28;20124;-62
2023/06/21 00:20:52;;;;;;;8.35;5.97;;;;;;;21.73;100.00;101093.19;5027077;28;20449;-62
2023/06/21 00:23:19;;;;;;;8.88;5.53;;;;;;;21.72;100.00;101101.84;5016415;28;20132;-63
2023/06/21 00:25:47;;;;;;;9.05;5.68;;;;;;;21.70;100.00;101103.00;5016044;28;20104;-61
2023/06/21 00:28:15;;;;;;;8.27;5.55;;;;;;;21.69;100.00;101104.16;5015019;28;20572;-62
2023/06/21 00:30:43;;;;;;;8.25;5.28;;;;;;;21.69;100.00;101101.41;5025124;28;20120;-62
2023/06/21 00:33:11;;;;;;;9.05;5.78;;;;;;;21.68;100.00;101096.97;5047056;28;20049;-62
2023/06/21 00:35:40;;;;;;;9.77;5.68;;;;;;;21.67;100.00;101109.25;5046526;28;20077;-62
2023/06/21 00:38:08;;;;;;;9.20;5.90;;;;;;;21.65;100.00;101100.44;4998893;28;20045;-64
2023/06/21 00:40:35;;;;;;;9.88;6.07;;;;;;;21.64;100.00;101098.78;5047915;28;20050;-63
2023/06/21 00:43:03;;;;;;;9.30;5.90;;;;;;;21.64;100.00;101104.34;5051783;28;20490;-64
2023/06/21 00:45:39;;;;;;;11.50;6.30;;;;;;;21.61;100.00;101102.25;5014605;28;20077;-63
2023/06/21 00:48:07;;;;;;;8.13;5.28;;;;;;;21.61;100.00;101099.47;5015517;28;20471;-63
2023/06/21 00:50:38;;;;;;;9.38;6.05;;;;;;;21.58;100.00;101111.25;5016070;28;20529;-64
2023/06/21 00:53:07;;;;;;;9.70;5.88;;;;;;;21.53;100.00;101111.44;5024206;28;20075;-64
2023/06/21 00:55:35;;;;;;;8.65;5.85;;;;;;;21.51;100.00;101110.97;5033712;28;20049;-63
2023/06/21 00:58:03;;;;;;;8.23;5.35;;;;;;;21.51;100.00;101104.63;5034548;28;20092;-63
2023/06/21 01:00:30;;;;;;;8.30;5.60;;;;;;;21.47;100.00;101115.53;5034719;28;20101;-62
2023/06/21 01:02:59;;;;;;;8.80;6.28;;;;;;;21.43;100.00;101115.41;5030112;28;20042;-62
2023/06/21 01:05:30;;;;;;;9.93;5.90;;;;;;;21.45;100.00;101115.06;5030376;28;20132;-63
2023/06/21 01:08:31;;;;;;;9.18;6.20;;;;;;;21.46;100.00;101119.47;5034102;28;20048;-63
2023/06/21 01:11:28;;;;;;;10.52;5.85;;;;;;;21.46;100.00;101128.59;5028904;28;20050;-63
2023/06/21 01:13:59;;;;;;;8.52;5.43;;;;;;;21.43;100.00;101125.66;5032889;28;20050;-63
2023/06/21 01:16:32;;;;;;;9.98;6.78;;;;;;;21.40;100.00;101129.94;5033344;28;20080;-64
2023/06/21 01:19:01;;;;;;;8.63;6.05;;;;;;;21.40;100.00;101131.91;5033874;28;20128;-62
2023/06/21 01:21:30;;;;;;;10.25;6.13;;;;;;;21.39;100.00;101133.03;5018235;28;20451;-62
2023/06/21 01:24:22;;;;;;;10.48;6.50;;;;;;;21.39;100.00;101138.56;5029389;28;20073;-63
2023/06/21 01:27:06;;;;;;;9.45;6.45;;;;;;;21.38;100.00;101134.16;5035317;28;20485;-63
2023/06/21 01:29:35;;;;;;;8.75;6.50;;;;;;;21.34;100.00;101131.25;5035216;28;20448;-62
2023/06/21 01:32:03;;;;;;;9.43;6.68;;;;;;;21.32;100.00;101121.63;5028201;28;20125;-61
2023/06/21 01:34:32;;;;;;;11.45;6.55;;;;;;;21.31;100.00;101128.31;5053310;28;20060;-61
2023/06/21 01:37:01;;;;;;;9.02;6.70;;;;;;;21.31;100.00;101134.69;5050598;28;20086;-63
2023/06/21 01:39:29;;;;;;;8.80;6.18;;;;;;;21.31;100.00;101131.09;5034562;28;20054;-63
2023/06/21 01:41:58;;;;;;;11.13;6.78;;;;;;;21.31;100.00;101133.84;5015667;28;20053;-61
2023/06/21 01:44:27;;;;;;;11.20;7.30;;;;;;;21.28;100.00;101136.16;5026103;28;20553;-61
2023/06/21 01:46:55;;;;;;;9.63;6.45;;;;;;;21.27;100.00;101140.06;5027825;28;20129;-63
2023/06/21 01:49:23;;;;;;;9.82;6.60;;;;;;;21.28;100.00;101136.16;5020056;28;20046;-63
2023/06/21 01:51:51;;;;;;;10.80;7.00;;;;;;;21.26;100.00;101143.16;5021319;28;20102;-61
2023/06/21 01:54:20;;;;;;;8.90;6.10;;;;;;;21.23;100.00;101143.84;5032673;28;20061;-63
2023/06/21 01:56:50;;;;;;;12.23;6.63;;;;;;;21.23;100.00;101146.63;5033268;28;20053;-62
2023/06/21 01:59:19;;;;;;;9.77;7.03;;;;;;;21.21;100.00;101143.34;5016914;28;20525;-62
2023/06/21 02:01:50;;;;;;;9.63;6.80;;;;;;;21.23;100.00;101144.66;5013939;28;20052;-63
2023/06/21 02:04:18;;;;;;;10.30;7.03;;;;;;;21.21;100.00;101140.59;5032554;28;20041;-63
2023/06/21 02:06:48;;;;;;;11.65;7.15;;;;;;;21.18;100.00;101136.53;5033248;28;20489;-62
2023/06/21 02:09:16;;;;;;;10.75;6.78;;;;;;;21.17;100.00;101147.97;5032564;28;20049;-63
2023/06/21 02:11:44;;;;;;;9.80;6.90;;;;;;;21.17;100.00;101147.97;5042768;28;20057;-63
2023/06/21 02:14:12;;;;;;;9.57;6.60;;;;;;;21.18;100.00;101150.38;5030784;28;20045;-62
2023/06/21 02:16:41;;;;;;;10.10;7.05;;;;;;;21.17;100.00;101159.84;5016067;28;20719;-62
2023/06/21 02:19:10;;;;;;;11.05;7.60;;;;;;;21.16;100.00;101158.22;5032498;28;20141;-64
2023/06/21 02:21:39;;;;;;;10.00;6.28;;;;;;;21.16;100.00;101160.16;5033015;28;20042;-64
2023/06/21 02:24:06;;;;;;;10.05;7.40;;;;;;;21.15;100.00;101153.81;5025991;28;20091;-63
2023/06/21 02:26:37;;;;;;;10.77;7.00;;;;;;;21.13;100.00;101155.31;5032830;28;20053;-61
2023/06/21 02:29:05;;;;;;;11.35;7.03;;;;;;;21.12;100.00;101160.03;5032554;28;20122;-63
2023/06/21 02:31:33;;;;;;;9.35;6.85;;;;;;;21.10;100.00;101161.50;5033893;28;20486;-63
2023/06/21 02:34:01;;;;;;;10.90;7.22;;;;;;;21.10;100.00;101167.88;5030523;28;20042;-62
2023/06/21 02:36:29;;;;;;;10.65;7.00;;;;;;;21.09;100.00;101169.00;5038299;28;20045;-62
2023/06/21 02:38:57;;;;;;;11.50;8.30;;;;;;;21.08;100.00;101177.66;5032608;28;20075;-63
2023/06/21 02:41:26;;;;;;;11.50;7.40;;;;;;;21.04;100.00;101175.53;5034628;28;20053;-63
2023/06/21 02:43:54;;;;;;;10.15;6.90;;;;;;;21.05;100.00;101179.13;5029451;28;20052;-61
2023/06/21 02:46:22;;;;;;;11.95;8.13;;;;;;;21.04;100.00;101180.25;5032504;28;20052;-64
2023/06/21 02:48:50;;;;;;;10.05;7.07;;;;;;;21.02;100.00;101185.31;5032320;28;20041;-64
2023/06/21 02:51:20;;;;;;;12.23;7.53;;;;;;;21.02;100.00;101188.91;5033373;28;20053;-64
2023/06/21 02:53:48;;;;;;;10.48;7.65;;;;;;;21.00;100.00;101193.97;5032011;28;20077;-63
2023/06/21 02:56:16;;;;;;;13.30;8.00;;;;;;;21.01;100.00;101189.22;5033528;28;20045;-64
2023/06/21 02:58:44;;;;;;;13.27;7.35;;;;;;;21.01;100.00;101192.00;5033408;28;20079;-61
2023/06/21 03:01:13;;;;;;;12.43;7.53;;;;;;;21.01;100.00;101205.84;5032451;28;20083;-63
2023/06/21 03:03:44;;;;;;;11.35;8.32;;;;;;;20.99;100.00;101208.13;5031093;28;20045;-62
2023/06/21 03:06:12;;;;;;;13.43;8.32;;;;;;;20.96;100.00;101208.81;5033246;28;20052;-62
2023/06/21 03:08:40;;;;;;;11.23;7.78;;;;;;;20.94;100.00;101214.66;5033731;28;20055;-63
2023/06/21 03:11:08;;;;;;;10.57;7.22;;;;;;;20.92;100.00;101213.38;5033453;28;20103;-62
2023/06/21 03:13:39;;;;;;;10.70;7.78;;;;;;;20.89;100.00;101216.81;5031437;28;20402;-62
2023/06/21 03:16:07;;;;;;;9.25;6.68;;;;;;;20.89;100.00;101222.34;5031844;28;20048;-64
2023/06/21 03:18:35;;;;;;;12.57;7.30;;;;;;;20.88;100.00;101231.78;5031525;28;20046;-63
2023/06/21 03:21:03;;;;;;;13.15;8.38;;;;;;;20.88;100.00;101234.53;5032304;28;20098;-62
2023/06/21 03:23:32;;;;;;;10.98;7.85;;;;;;;20.86;100.00;101237.66;5028277;28;20110;-62
2023/06/21 03:25:59;;;;;;;13.43;8.23;;;;;;;20.86;100.00;101243.19;5034748;28;20051;-64
2023/06/21 03:28:27;;;;;;;13.30;8.52;;;;;;;20.87;100.00;101246.78;5036649;28;20050;-63
2023/06/21 03:30:57;;;;;;;13.43;9.18;;;;;;;20.84;100.00;101249.06;5036108;28;20045;-64
2023/06/21 03:33:27;;;;;;;11.80;7.88;;;;;;;20.82;100.00;101251.34;5000150;28;20050;-63
2023/06/21 03:35:55;;;;;;;10.93;7.03;;;;;;;20.82;100.00;101251.34;5034827;28;20050;-62
2023/06/21 03:38:23;;;;;;;10.55;7.80;;;;;;;20.84;100.00;101251.81;5036669;28;20091;-63
2023/06/21 03:40:51;;;;;;;12.60;8.55;;;;;;;20.84;100.00;101254.59;5036529;28;20045;-63
2023/06/21 03:43:20;;;;;;;12.65;8.35;;;;;;;20.84;100.00;101251.81;5034784;28;20489;-64
2023/06/21 03:45:49;;;;;;;12.60;7.75;;;;;;;20.84;100.00;101249.06;5034522;28;20087;-63
2023/06/21 03:48:17;;;;;;;15.45;8.75;;;;;;;20.83;100.00;101252.97;5035170;28;20042;-63
2023/06/21 03:50:45;;;;;;;12.15;8.02;;;;;;;20.82;100.00;101259.66;5051132;28;20102;-62
2023/06/21 03:53:13;;;;;;;12.15;8.65;;;;;;;20.82;100.00;101245.00;5048829;28;20054;-63
2023/06/21 03:56:01;;;;;;;13.00;9.27;;;;;;;20.85;100.00;101252.63;5051909;28;20140;-62
2023/06/21 03:58:29;;;;;;;14.02;9.80;;;;;;;20.83;100.00;101241.09;5035416;28;20053;-62
2023/06/21 04:00:56;;;;;;;12.40;9.00;;;;;;;20.82;100.00;101243.03;5018566;28;20393;-64
2023/06/21 04:03:25;;;;;;;11.75;7.50;;;;;;;20.82;100.00;101250.53;5031875;28;20038;-64
2023/06/21 04:05:53;;;;;;;13.00;7.82;;;;;;;20.83;100.00;101263.25;5017470;28;20045;-64
2023/06/21 04:08:21;;;;;;;13.02;7.70;;;;;;;20.81;100.00;101249.72;5035910;28;20056;-64
2023/06/21 04:10:49;;;;;;;10.82;8.05;;;;;;;20.82;100.00;101256.88;5034753;28;20119;-62
2023/06/21 04:13:16;;;;;;;12.52;8.73;;;;;;;20.82;100.00;101267.94;5023123;28;20494;-65
2023/06/21 04:15:46;;;;;;;13.40;9.15;;;;;;;20.82;100.00;101270.72;5050623;28;20045;-64
2023/06/21 04:18:15;;;;;;;12.23;8.43;;;;;;;20.83;100.00;101268.78;5033822;28;20438;-63
2023/06/21 04:20:42;;;;;;;12.45;9.55;;;;;;;20.81;100.00;101271.88;5023917;28;20045;-63
2023/06/21 04:23:10;;;;;;;12.48;8.15;;;;;;;20.81;100.00;101273.84;5035907;28;20120;-63
2023/06/21 04:25:38;;;;;;;11.48;8.13;;;;;;;20.81;100.00;101276.59;5035416;28;20046;-63
2023/06/21 04:28:06;;;;;;;12.65;8.75;;;;;;;20.81;100.00;101271.88;5032653;28;20593;-63
2023/06/21 04:30:34;;;;;;;12.32;8.38;;;;;;;20.83;100.00;101272.38;5032947;28;20536;-63
2023/06/21 04:33:02;;;;;;;12.68;8.52;;;;;;;20.88;100.00;101273.31;5033725;28;20502;-64
2023/06/21 04:35:33;;;;;;;13.82;8.48;;;;;;;20.90;100.00;101285.72;5039817;28;20050;-64
2023/06/21 04:38:02;;;;;;;11.40;8.52;;;;;;;20.91;100.00;101295.66;5037872;28;20053;-63
2023/06/21 04:40:30;;;;;;;13.15;8.32;;;;;;;20.91;100.00;101292.88;5035124;28;20037;-65
2023/06/21 04:43:01;;;;;;;11.18;8.30;;;;;;;20.91;100.00;101281.81;5033386;28;20045;-64
2023/06/21 04:45:29;;;;;;;11.10;8.65;;;;;;;20.92;100.00;101293.69;5035478;28;20042;-65
2023/06/21 04:47:57;;;;;;;11.52;8.10;;;;;;;20.92;100.00;101294.50;5034083;28;20060;-64
2023/06/21 04:50:26;;;;;;;13.05;9.02;;;;;;;20.93;100.00;101306.44;5034776;28;20128;-64
2023/06/21 04:52:58;;;;;;;11.15;8.63;;;;;;;20.95;100.00;101304.13;5035463;28;20049;-64
2023/06/21 04:55:27;;;;;;;11.35;8.85;;;;;;;20.95;100.00;101304.13;5032596;28;20344;-64
2023/06/21 04:57:55;;;;;;;15.35;8.65;;;;;;;20.97;100.00;101302.69;5024399;28;20453;-64
2023/06/21 05:00:23;;;;;;;13.18;8.27;;;;;;;21.02;100.00;101310.81;4331211;28;10000048;-62
2023/06/21 05:02:51;;;;;;;12.20;8.85;;;;;;;21.04;100.00;101302.97;5030174;28;20037;-63
2023/06/21 05:05:19;;;;;;;12.10;8.38;;;;;;;21.06;100.00;101300.69;5030916;28;20391;-63
2023/06/21 05:07:46;;;;;;;11.82;9.05;;;;;;;21.08;100.00;101296.78;5029951;28;20081;-63
2023/06/21 05:10:14;;;;;;;12.63;9.48;;;;;;;21.08;100.00;101314.22;5029464;28;20069;-64
2023/06/21 05:12:42;;;;;;;12.38;9.15;;;;;;;21.09;100.00;101315.03;5031082;28;20097;-63
2023/06/21 05:15:14;;;;;;;13.57;9.00;;;;;;;21.09;100.00;101315.84;5023599;28;20053;-63
2023/06/21 05:17:42;;;;;;;13.95;9.63;;;;;;;21.10;100.00;101316.69;5020527;28;20374;-62
2023/06/21 05:20:10;;;;;;;12.27;9.68;;;;;;;21.12;100.00;101317.13;5030979;28;20049;-65
2023/06/21 05:22:38;;;;;;;13.90;9.48;;;;;;;21.12;100.00;101317.13;5030673;28;20517;-65
2023/06/21 05:25:06;;;;;;;14.88;10.68;;;;;;;21.13;100.00;101333.44;5029548;28;20073;-65
2023/06/21 05:27:34;;;;;;;15.10;10.82;;;;;;;21.12;100.00;101334.59;5027525;28;20650;-66
2023/06/21 05:30:02;;;;;;;14.18;10.65;;;;;;;21.13;100.00;101338.19;5031880;28;20133;-66
2023/06/21 05:32:32;;;;;;;13.98;10.82;;;;;;;21.12;100.00;101329.06;5029891;28;20170;-66
2023/06/21 05:35:00;;;;;;;14.95;12.43;;;;;;;21.09;100.00;101349.09;4995670;28;20069;-65
2023/06/21 05:37:27;;;;;;;14.88;11.77;;;;;;;21.04;100.00;101340.94;5030076;28;20045;-65
2023/06/21 05:39:56;;;;;;;16.13;12.27;;;;;;;21.01;100.00;101339.66;5030966;28;20140;-65
2023/06/21 05:42:25;;;;;;;16.02;11.02;;;;;;;21.01;100.00;101341.63;5033739;28;20060;-66
2023/06/21 05:44:53;;;;;;;16.92;13.57;;;;;;;20.99;100.00;101338.34;5034450;28;20084;-62
2023/06/21 05:47:20;;;;;;;15.93;12.30;;;;;;;20.94;100.00;101331.00;5039838;28;20124;-65
2023/06/21 05:49:49;;;;;;;21.30;15.23;;;;;;;20.92;100.00;101338.03;5027219;28;20072;-64
2023/06/21 05:52:16;;;;;;;19.90;16.45;;;;;;;20.85;100.00;101350.41;5019252;28;20068;-65
2023/06/21 05:54:44;;;;;;;16.00;13.10;;;;;;;20.85;100.00;101344.03;5017230;28;20046;-62
2023/06/21 05:57:12;;;;;;;17.25;14.07;;;;;;;20.82;100.00;101353.81;5043825;28;20069;-62
2023/06/21 05:59:41;;;;;;;17.02;13.55;;;;;;;20.87;100.00;101365.88;5037960;28;20061;-65
2023/06/21 06:02:09;;;;;;;18.13;14.50;;;;;;;20.87;100.00;101363.13;5020029;28;20112;-64
2023/06/21 06:04:37;;;;;;;17.10;12.38;;;;;;;20.93;100.00;101364.59;5013843;28;20052;-65
2023/06/21 06:07:05;;;;;;;23.35;15.80;;;;;;;20.98;100.00;101369.97;5034755;28;20054;-64
2023/06/21 06:09:33;;;;;;;17.42;13.20;;;;;;;21.02;100.00;101379.25;5037813;28;20072;-63
2023/06/21 06:12:01;;;;;;;20.58;14.73;;;;;;;21.05;100.00;101376.66;5036588;28;20057;-64
2023/06/21 06:14:29;;;;;;;26.20;17.25;;;;;;;21.07;100.00;101373.56;5033481;28;20061;-65
2023/06/21 06:16:56;;;;;;;19.67;14.02;;;;;;;21.11;100.00;101382.03;5031768;28;20085;-66
2023/06/21 06:19:24;;;;;;;21.83;16.52;;;;;;;21.13;100.00;101386.09;5030929;28;20073;-64
2023/06/21 06:21:52;;;;;;;18.17;13.55;;;;;;;21.08;100.00;101380.72;5031512;28;20120;-65
2023/06/21 06:24:19;;;;;;;20.80;14.50;;;;;;;21.01;100.00;101389.53;5033633;28;20401;-63
2023/06/21 06:26:47;;;;;;;18.98;14.80;;;;;;;20.94;100.00;101385.59;5032223;28;20091;-65
2023/06/21 06:29:15;;;;;;;17.83;14.82;;;;;;;20.94;100.00;101393.91;5033673;28;20423;-65
2023/06/21 06:31:43;;;;;;;17.10;13.98;;;;;;;20.87;100.00;101402.69;5032691;28;20045;-64
2023/06/21 06:34:10;;;;;;;17.00;11.48;;;;;;;20.89;100.00;101400.44;5033962;28;20056;-65
2023/06/21 06:36:38;;;;;;;17.63;12.23;;;;;;;20.97;100.00;101402.41;5033072;28;20073;-64
2023/06/21 06:39:07;;;;;;;17.88;13.13;;;;;;;21.02;100.00;101404.19;5033087;28;20103;-64
2023/06/21 06:41:35;;;;;;;16.80;12.50;;;;;;;20.96;100.00;101413.81;5033275;28;20096;-63
2023/06/21 06:44:05;;;;;;;15.77;11.07;;;;;;;20.97;100.00;101412.66;5032583;28;20049;-66
2023/06/21 06:46:33;;;;;;;14.48;10.27;;;;;;;21.03;100.00;101412.19;5032683;28;20608;-65
2023/06/21 06:49:01;;;;;;;17.98;12.50;;;;;;;21.07;100.00;101412.38;5030157;28;20128;-64
2023/06/21 06:51:29;;;;;;;14.80;10.60;;;;;;;21.11;100.00;101415.28;5012536;28;20494;-64
2023/06/21 06:53:56;;;;;;;18.30;11.18;;;;;;;21.11;100.00;101429.13;5013749;28;20085;-65
2023/06/21 06:56:26;;;;;;;18.73;13.23;;;;;;;21.09;100.00;101423.91;5044945;28;20057;-64
2023/06/21 06:58:54;;;;;;;19.23;12.65;;;;;;;21.04;100.00;101429.63;5030961;28;20087;-65
2023/06/21 07:01:27;;;;;;;17.00;12.02;;;;;;;20.95;100.00;101431.56;5037090;28;20060;-65
2023/06/21 07:03:56;;;;;;;16.40;10.75;;;;;;;20.91;100.00;101436.13;5037168;28;20486;-65
2023/06/21 07:06:24;;;;;;;16.15;10.60;;;;;;;20.94;100.00;101446.56;5036197;28;20045;-66
2023/06/21 07:08:52;;;;;;;14.70;11.45;;;;;;;20.94;100.00;101446.56;5033804;28;20045;-64
2023/06/21 07:11:20;;;;;;;17.20;13.45;;;;;;;20.87;100.00;101451.75;5017439;28;20116;-62
2023/06/21 07:13:47;;;;;;;15.98;11.70;;;;;;;20.92;100.00;101449.63;5031354;28;20054;-66
2023/06/21 07:16:15;;;;;;;19.05;13.98;;;;;;;20.93;100.00;101450.47;5037081;28;20097;-65
2023/06/21 07:18:43;;;;;;;19.00;13.13;;;;;;;20.92;100.00;101452.41;5036785;28;20037;-65
2023/06/21 07:21:17;;;;;;;17.58;10.93;;;;;;;20.96;100.00;101449.81;5036597;28;20053;-65
2023/06/21 07:23:48;;;;;;;14.93;10.63;;;;;;;21.03;100.00;101450.16;5036383;28;20046;-65
2023/06/21 07:26:16;;;;;;;13.75;10.23;;;;;;;21.10;100.00;101444.16;5036399;28;20151;-64
2023/06/21 07:28:44;;;;;;;13.55;9.05;;;;;;;21.15;100.00;101447.56;5036750;28;20052;-63
2023/06/21 07:31:11;;;;;;;15.35;10.07;;;;;;;21.21;100.00;101449.06;5033019;28;20076;-64
2023/06/21 07:33:39;;;;;;;12.75;9.35;;;;;;;21.22;100.00;101450.66;5037414;28;20505;-64
2023/06/21 07:36:07;;;;;;;15.10;10.93;;;;;;;21.24;100.00;101458.66;5036249;28;20394;-65
2023/06/21 07:38:34;;;;;;;13.85;10.40;;;;;;;21.23;100.00;101443.97;5035668;28;20072;-64
2023/06/21 07:41:02;;;;;;;13.40;8.40;;;;;;;21.26;100.00;101446.13;5034794;28;20042;-65
2023/06/21 07:43:30;;;;;;;17.08;11.90;;;;;;;21.31;99.89;101444.31;5035965;28;20486;-66
2023/06/21 07:45:58;;;;;;;12.82;9.50;;;;;;;21.33;98.41;101455.88;5036817;28;20456;-65
2023/06/21 07:48:41;;;;;;;13.05;8.95;;;;;;;21.30;96.83;101462.91;5035822;28;20045;-64
2023/06/21 07:51:10;;;;;;;12.35;8.85;;;;;;;21.30;97.83;101462.91;5035576;28;20044;-65
2023/06/21 07:53:37;;;;;;;14.02;10.43;;;;;;;21.33;99.44;101481.66;5036802;28;20064;-64
2023/06/21 07:56:05;;;;;;;12.80;8.32;;;;;;;21.36;99.85;101474.63;5036723;28;20120;-65
2023/06/21 07:58:33;;;;;;;13.27;9.93;;;;;;;21.38;98.75;101459.34;5035805;28;20125;-65
2023/06/21 08:01:01;;;;;;;14.07;8.93;;;;;;;21.42;98.76;101463.09;5036516;28;20046;-65
2023/06/21 08:03:29;;;;;;;12.60;9.00;;;;;;;21.49;99.42;101465.38;5035504;28;20045;-64
2023/06/21 08:05:56;;;;;;;11.80;7.43;;;;;;;21.55;98.68;101457.69;5036506;28;20046;-65
2023/06/21 08:08:24;;;;;;;13.63;7.80;;;;;;;21.63;97.82;101471.56;5063760;28;20127;-65
2023/06/21 08:10:52;;;;;;;10.70;6.97;;;;;;;21.67;97.02;101468.94;5015423;28;20061;-65
2023/06/21 08:13:22;;;;;;;11.50;7.93;;;;;;;21.70;95.88;101465.53;5028631;28;20045;-66
2023/06/21 08:15:53;;;;;;;10.63;7.03;;;;;;;21.72;95.36;101470.75;5036934;28;20038;-65
2023/06/21 08:18:21;;;;;;;9.23;6.93;;;;;;;21.76;95.20;101474.50;5017431;28;20157;-65
2023/06/21 08:20:49;;;;;;;9.88;6.25;;;;;;;21.78;94.77;101469.44;5028969;28;20120;-66
2023/06/21 08:23:16;;;;;;;9.85;6.90;;;;;;;21.81;92.59;101477.09;5035758;28;20053;-67
2023/06/21 08:25:45;;;;;;;8.45;5.97;;;;;;;21.83;93.22;101483.13;5034932;28;20474;-64
2023/06/21 08:28:13;;;;;;;11.13;6.82;;;;;;;21.85;92.79;101486.41;5035618;28;20133;-65
2023/06/21 08:30:40;;;;;;;8.77;6.13;;;;;;;21.88;93.35;101497.66;5035881;28;20517;-63
2023/06/21 08:33:08;;;;;;;11.45;6.00;;;;;;;21.93;94.40;101493.88;5036279;28;20087;-65
2023/06/21 08:35:40;;;;;;;10.65;6.07;;;;;;;21.96;93.11;101498.81;5034924;28;20053;-65
2023/06/21 08:38:08;;;;;;;9.05;5.25;;;;;;;21.99;93.96;101497.31;5033344;28;20068;-65
2023/06/21 08:40:59;;;;;;;9.88;5.68;;;;;;;22.03;92.98;101493.56;5016243;28;20490;-66
2023/06/21 08:43:27;;;;;;;9.93;5.18;;;;;;;22.05;91.80;101491.25;5015017;28;20482;-66
2023/06/21 08:45:56;;;;;;;11.18;6.82;;;;;;;22.04;88.29;101489.63;5014674;28;20046;-65
2023/06/21 08:48:25;;;;;;;10.68;5.65;;;;;;;22.02;87.84;101494.69;5012822;28;20080;-65
2023/06/21 08:50:52;;;;;;;9.18;6.05;;;;;;;22.00;87.95;101488.66;5018050;28;20049;-65
2023/06/21 08:53:31;;;;;;;11.98;7.18;;;;;;;21.98;88.37;101487.34;5035564;28;20069;-64
2023/06/21 08:56:00;;;;;;;11.13;7.22;;;;;;;21.99;89.39;101491.78;5035858;28;20063;-65
2023/06/21 08:58:33;;;;;;;10.85;6.75;;;;;;;22.00;89.34;101491.44;5034961;28;20065;-66
2023/06/21 09:01:03;;;;;;;10.02;6.13;;;;;;;22.02;88.12;101486.38;5015916;28;20493;-65
2023/06/21 09:03:50;;;;;;;10.18;6.78;;;;;;;22.02;87.43;101496.66;5042040;28;20132;-65
2023/06/21 09:06:22;;;;;;;9.30;6.75;;;;;;;22.07;87.94;101500.06;5019726;28;20548;-65
2023/06/21 09:08:52;;;;;;;10.90;7.35;;;;;;;22.08;86.76;101501.72;5034232;28;20051;-66
2023/06/21 09:11:22;;;;;;;10.68;7.50;;;;;;;22.11;87.15;101498.28;5035273;28;20058;-63
2023/06/21 09:13:50;;;;;;;11.35;6.95;;;;;;;22.13;85.50;101498.75;5035361;28;20144;-66
2023/06/21 09:16:19;;;;;;;12.15;8.75;;;;;;;22.18;84.50;101496.97;5023276;28;20154;-64
2023/06/21 09:18:47;;;;;;;10.23;6.50;;;;;;;22.23;83.07;101507.91;5011808;28;20053;-65
2023/06/21 09:21:16;;;;;;;13.60;8.13;;;;;;;22.25;82.26;101508.41;4998350;28;20137;-64
2023/06/21 09:23:44;;;;;;;12.55;7.93;;;;;;;22.25;82.87;101506.44;5013802;28;20073;-64
2023/06/21 09:26:12;;;;;;;9.40;6.55;;;;;;;22.27;83.17;101515.25;5016215;28;20072;-65
2023/06/21 09:28:40;;;;;;;11.07;6.68;;;;;;;22.31;82.32;101505.09;5015110;28;20053;-64
2023/06/21 09:31:07;;;;;;;9.30;6.38;;;;;;;22.37;82.36;101511.31;5015259;28;20085;-64
2023/06/21 09:33:36;;;;;;;7.22;5.25;;;;;;;22.41;80.33;101523.34;5015129;28;20077;-64
2023/06/21 09:36:05;;;;;;;10.20;6.75;;;;;;;22.46;78.88;101519.59;5016201;28;20048;-66
2023/06/21 09:38:35;;;;;;;12.45;7.32;;;;;;;22.50;78.46;101520.56;5014810;28;20056;-64
2023/06/21 09:41:07;;;;;;;11.52;7.88;;;;;;;22.52;78.29;101521.88;5014704;28;20050;-64
2023/06/21 09:43:41;;;;;;;14.90;8.40;;;;;;;22.52;78.74;101521.88;5013684;28;20056;-64
2023/06/21 09:46:11;;;;;;;12.77;8.25;;;;;;;22.55;79.34;101525.94;5039129;28;20128;-63
2023/06/21 09:48:40;;;;;;;9.75;6.28;;;;;;;22.59;78.67;101531.66;5034282;28;20057;-65
2023/06/21 09:51:18;;;;;;;11.32;8.07;;;;;;;22.65;77.62;101524.75;5032469;28;20045;-64
2023/06/21 09:53:47;;;;;;;9.65;6.00;;;;;;;22.68;75.72;101529.63;5025808;28;20489;-64
2023/06/21 09:56:18;;;;;;;10.68;7.28;;;;;;;22.70;76.33;101527.34;5027952;28;20442;-64
2023/06/21 09:58:48;;;;;;;9.90;6.75;;;;;;;22.72;74.60;101525.06;5022952;28;20052;-62
2023/06/21 10:01:17;;;;;;;10.32;5.82;;;;;;;22.74;75.21;101523.56;5033343;28;20448;-63
2023/06/21 10:03:46;;;;;;;9.75;5.55;;;;;;;22.80;73.60;101521.44;5052032;28;20068;-65
2023/06/21 10:06:16;;;;;;;7.82;4.93;;;;;;;22.85;73.48;101529.59;5025211;28;20100;-64
2023/06/21 10:08:49;;;;;;;9.13;5.13;;;;;;;22.88;71.37;101534.47;5013334;28;20048;-64
2023/06/21 10:11:17;;;;;;;10.50;5.85;;;;;;;22.85;69.53;101540.69;5019351;28;20045;-65
2023/06/21 10:13:45;;;;;;;9.35;5.00;;;;;;;22.82;70.38;101535.78;5034873;28;20045;-63
2023/06/21 10:16:13;;;;;;;6.30;4.18;;;;;;;22.86;71.35;101539.53;5031796;28;20128;-63
2023/06/21 10:18:40;;;;;;;11.07;4.80;;;;;;;22.93;70.31;101541.78;5034973;28;20370;-64
2023/06/21 10:21:08;;;;;;;7.50;4.57;;;;;;;22.95;68.61;101537.53;5040060;28;20073;-63
2023/06/21 10:23:38;;;;;;;7.22;4.00;;;;;;;23.01;70.74;101548.47;5045256;28;20124;-60
2023/06/21 10:26:07;;;;;;;8.52;4.80;;;;;;;23.06;69.67;101542.72;5042612;28;20103;-65
2023/06/21 10:28:42;;;;;;;7.85;4.78;;;;;;;23.07;69.11;101545.19;5032899;28;20080;-65
2023/06/21 10:31:11;;;;;;;8.05;5.05;;;;;;;23.08;69.92;101559.91;5039565;28;20128;-63
2023/06/21 10:33:39;;;;;;;6.88;4.57;;;;;;;23.10;69.08;101557.59;5014337;28;20041;-60
2023/06/21 10:36:11;;;;;;;12.60;5.80;;;;;;;23.14;69.64;101561.34;5045107;28;20068;-63
2023/06/21 10:38:44;;;;;;;8.35;5.18;;;;;;;23.23;69.04;101559.31;5032472;28;20049;-63
2023/06/21 10:41:14;;;;;;;7.20;4.03;;;;;;;23.29;67.51;101560.75;5032184;28;20049;-64
2023/06/21 10:43:43;;;;;;;8.65;4.30;;;;;;;23.31;65.25;101564.03;5031166;28;20045;-64
2023/06/21 10:46:11;;;;;;;9.63;4.18;;;;;;;23.35;65.71;101561.38;5027696;28;20506;-64
2023/06/21 10:48:40;;;;;;;7.43;4.07;;;;;;;23.39;63.53;101570.66;5028064;28;20136;-65
2023/06/21 10:51:09;;;;;;;7.35;3.60;;;;;;;23.36;63.82;101572.16;5013119;28;20060;-64
2023/06/21 10:53:36;;;;;;;8.63;4.68;;;;;;;23.34;65.66;101568.91;5025497;28;20452;-63
2023/06/21 10:56:05;;;;;;;9.43;4.68;;;;;;;23.32;66.26;101570.38;5014527;28;20053;-64
2023/06/21 10:58:33;;;;;;;8.68;4.45;;;;;;;23.28;67.71;101575.81;5026903;28;20077;-64
2023/06/21 11:01:01;;;;;;;8.27;4.97;;;;;;;23.31;68.67;101577.91;5010459;28;20505;-64
2023/06/21 11:03:29;;;;;;;8.80;4.45;;;;;;;23.38;69.02;101582.97;5012748;28;20050;-64
2023/06/21 11:06:20;;;;;;;10.32;5.35;;;;;;;23.46;68.64;101582.06;5014647;28;20073;-64
2023/06/21 11:08:48;;;;;;;10.18;5.75;;;;;;;23.53;68.67;101573.19;5009748;28;20490;-64
2023/06/21 11:11:32;;;;;;;10.50;4.68;;;;;;;23.57;69.56;101580.53;5010622;28;20161;-65
2023/06/21 11:14:04;;;;;;;7.30;4.80;;;;;;;23.65;69.84;101576.06;5012336;28;20089;-63
2023/06/21 11:16:37;;;;;;;6.90;3.85;;;;;;;23.67;66.59;101576.53;5025966;28;20049;-65
2023/06/21 11:19:07;;;;;;;5.45;3.42;;;;;;;23.69;63.68;101579.78;5028324;28;20054;-64
2023/06/21 11:21:41;;;;;;;6.10;3.45;;;;;;;23.69;62.61;101590.94;5028944;28;20055;-65